Time;durP1;ratioP1;P1;durP2;ratioP2;P2;SDS_P1;SDS_P2;PMS_P1;PMS_P2;Temp;Humidity;BMP_temperature;BMP_pressure;BME280_temperature;BME280_humidity;BME280_pressure;Samples;Min_cycle;Max_cycle;Signal;HPM_P1;HPM_P2
2022/11/26 00:00:19;;;;;;;1.25;0.70;;;7.40;99.90;;;;;;5044342;28;20048;-80
2022/11/26 00:02:46;;;;;;;0.82;0.65;;;7.50;99.90;;;;;;5060314;28;20438;-80
2022/11/26 00:05:13;;;;;;;0.52;0.52;;;7.40;99.90;;;;;;5043453;28;20364;-80
2022/11/26 00:07:41;;;;;;;1.10;0.68;;;7.40;99.90;;;;;;5044126;28;20063;-81
2022/11/26 00:10:23;;;;;;;1.45;0.73;;;7.30;99.90;;;;;;5043650;28;20067;-80
2022/11/26 00:12:50;;;;;;;2.30;0.80;;;7.20;99.90;;;;;;5043926;28;20140;-80
2022/11/26 00:15:22;;;;;;;1.38;0.80;;;7.20;99.90;;;;;;5043942;28;20136;-80
2022/11/26 00:17:49;;;;;;;1.50;0.80;;;7.20;99.90;;;;;;5044220;28;20067;-80
2022/11/26 00:20:17;;;;;;;1.33;0.65;;;7.10;99.90;;;;;;5027717;28;20049;-80
2022/11/26 00:22:49;;;;;;;1.13;0.60;;;7.00;99.90;;;;;;5027286;28;20049;-80
2022/11/26 00:25:18;;;;;;;0.98;0.70;;;7.00;99.90;;;;;;5043946;28;20047;-79
2022/11/26 00:27:45;;;;;;;1.20;0.75;;;7.00;99.90;;;;;;5042951;28;20044;-80
2022/11/26 00:30:21;;;;;;;1.38;0.60;;;6.90;99.90;;;;;;5027366;28;20484;-79
2022/11/26 00:32:48;;;;;;;0.80;0.65;;;6.90;99.90;;;;;;5043815;28;20056;-80
2022/11/26 00:35:14;;;;;;;0.40;0.40;;;6.80;99.90;;;;;;5026633;28;20044;-80
2022/11/26 00:37:52;;;;;;;1.17;0.70;;;6.80;99.90;;;;;;5040775;28;20084;-80
2022/11/26 00:40:26;;;;;;;1.30;0.80;;;6.80;99.90;;;;;;5060429;28;20045;-79
2022/11/26 00:42:53;;;;;;;0.70;0.60;;;6.70;99.90;;;;;;5030545;28;20370;-80
2022/11/26 00:45:28;;;;;;;1.00;0.73;;;6.70;99.90;;;;;;5047813;28;20415;-81
2022/11/26 00:47:59;;;;;;;0.95;0.85;;;6.60;99.90;;;;;;5047278;28;20048;-80
2022/11/26 00:50:26;;;;;;;0.93;0.70;;;6.70;99.90;;;;;;5047513;28;20103;-80
2022/11/26 00:52:54;;;;;;;1.27;0.68;;;6.60;99.90;;;;;;5030660;28;20055;-80
2022/11/26 00:55:27;;;;;;;0.50;0.50;;;6.70;99.90;;;;;;5047101;28;20044;-80
2022/11/26 00:57:55;;;;;;;1.00;0.65;;;6.70;99.90;;;;;;5062535;28;20146;-80
2022/11/26 01:00:26;;;;;;;0.75;0.63;;;6.70;99.90;;;;;;5063914;28;20146;-80
2022/11/26 01:02:53;;;;;;;0.85;0.63;;;6.70;99.90;;;;;;5030842;28;20044;-79
2022/11/26 01:05:21;;;;;;;1.65;0.45;;;6.70;99.90;;;;;;5063163;28;20646;-80
2022/11/26 01:07:48;;;;;;;1.70;0.68;;;6.80;99.90;;;;;;5065329;28;20048;-80
2022/11/26 01:10:22;;;;;;;0.65;0.40;;;6.90;99.90;;;;;;5032034;28;20055;-80
2022/11/26 01:12:49;;;;;;;1.08;0.52;;;6.90;99.90;;;;;;5049275;28;20135;-80
2022/11/26 01:15:17;;;;;;;1.80;0.63;;;7.00;99.90;;;;;;5066647;28;20447;-80
2022/11/26 01:17:44;;;;;;;1.27;0.80;;;7.00;99.90;;;;;;5050328;28;20114;-80
2022/11/26 01:20:25;;;;;;;2.25;0.73;;;7.00;99.90;;;;;;5066574;28;20648;-80
2022/11/26 01:22:52;;;;;;;0.40;0.40;;;7.00;99.90;;;;;;5034628;28;20056;-80
2022/11/26 01:25:19;;;;;;;1.17;0.60;;;7.00;99.90;;;;;;5033627;28;20392;-80
2022/11/26 01:27:46;;;;;;;1.05;0.50;;;6.90;99.90;;;;;;5031912;28;20052;-80
2022/11/26 01:30:27;;;;;;;1.02;0.57;;;6.90;99.90;;;;;;5066881;28;20131;-80
2022/11/26 01:32:54;;;;;;;0.63;0.50;;;6.90;99.90;;;;;;5033619;28;20139;-80
2022/11/26 01:35:21;;;;;;;1.38;0.60;;;6.90;99.90;;;;;;5032995;28;20052;-80
2022/11/26 01:37:49;;;;;;;0.50;0.50;;;6.90;99.90;;;;;;5065888;28;20048;-79
2022/11/26 01:40:24;;;;;;;0.57;0.50;;;6.80;99.90;;;;;;5066320;28;20416;-80
2022/11/26 01:42:52;;;;;;;1.40;0.40;;;6.80;99.90;;;;;;5066586;28;20106;-80
2022/11/26 01:45:21;;;;;;;0.90;0.60;;;6.90;99.90;;;;;;5033029;28;20136;-79
2022/11/26 01:47:48;;;;;;;1.60;0.52;;;6.90;99.90;;;;;;5049729;28;20484;-80
2022/11/26 01:50:27;;;;;;;1.02;0.70;;;6.90;99.90;;;;;;5032506;28;20052;-80
2022/11/26 01:53:05;;;;;;;0.80;0.57;;;6.90;99.90;;;;;;5064970;28;20052;-80
2022/11/26 01:55:40;;;;;;;0.57;0.50;;;6.90;99.90;;;;;;5034284;28;20495;-80
2022/11/26 01:58:08;;;;;;;1.52;0.57;;;7.00;99.90;;;;;;5032634;28;20052;-80
2022/11/26 02:00:35;;;;;;;1.02;0.70;;;7.10;99.90;;;;;;5032537;28;20048;-80
2022/11/26 02:03:02;;;;;;;1.40;0.80;;;7.10;99.90;;;;;;5033178;28;20052;-79
2022/11/26 02:05:31;;;;;;;0.43;0.30;;;7.10;99.90;;;;;;5049003;28;20045;-81
2022/11/26 02:07:58;;;;;;;0.57;0.52;;;7.20;99.90;;;;;;5065093;28;20524;-80
2022/11/26 02:10:25;;;;;;;0.82;0.73;;;7.20;99.90;;;;;;5049157;28;20044;-80
2022/11/26 02:12:52;;;;;;;0.70;0.60;;;7.20;99.90;;;;;;5065766;28;20080;-80
2022/11/26 02:15:18;;;;;;;0.52;0.50;;;7.30;99.90;;;;;;5065528;28;20044;-80
2022/11/26 02:17:49;;;;;;;0.47;0.40;;;7.30;99.90;;;;;;5049060;28;20067;-80
2022/11/26 02:20:30;;;;;;;0.47;0.43;;;7.30;99.90;;;;;;5032891;28;20071;-80
2022/11/26 02:23:28;;;;;;;0.75;0.60;;;7.30;99.90;;;;;;5064982;28;20495;-80
2022/11/26 02:26:41;;;;;;;0.73;0.50;;;7.30;99.90;;;;;;5062318;28;20052;-80
2022/11/26 02:29:18;;;;;;;1.80;0.88;;;7.40;99.90;;;;;;5043765;28;20056;-80
2022/11/26 02:31:50;;;;;;;1.05;0.60;;;7.40;99.90;;;;;;5048647;28;20128;-80
2022/11/26 02:34:39;;;;;;;0.45;0.32;;;7.40;99.90;;;;;;5060467;28;20048;-80
2022/11/26 02:37:13;;;;;;;0.50;0.50;;;7.40;99.90;;;;;;5050494;28;20102;-79
2022/11/26 02:39:40;;;;;;;0.60;0.50;;;7.40;99.90;;;;;;5031173;28;20149;-80
2022/11/26 02:42:26;;;;;;;1.60;0.70;;;7.40;99.90;;;;;;5046817;28;20052;-81
2022/11/26 02:44:55;;;;;;;0.40;0.40;;;7.40;99.90;;;;;;5063150;28;20487;-79
2022/11/26 02:47:21;;;;;;;0.47;0.45;;;7.40;99.90;;;;;;5046958;28;20083;-80
2022/11/26 02:49:48;;;;;;;1.10;0.85;;;7.40;99.90;;;;;;5046357;28;20446;-79
2022/11/26 02:52:15;;;;;;;0.93;0.60;;;7.40;99.90;;;;;;5030750;28;20055;-80
2022/11/26 02:54:42;;;;;;;0.63;0.50;;;7.50;99.90;;;;;;5030116;28;20053;-79
2022/11/26 02:57:11;;;;;;;0.32;0.30;;;7.50;99.90;;;;;;5030261;28;20076;-79
2022/11/26 02:59:38;;;;;;;1.88;0.60;;;7.50;99.90;;;;;;5030229;28;20048;-80
2022/11/26 03:02:20;;;;;;;0.90;0.50;;;7.60;99.90;;;;;;5046841;28;20052;-79
2022/11/26 03:04:48;;;;;;;1.45;0.60;;;7.70;99.90;;;;;;5062859;28;20048;-80
2022/11/26 03:07:17;;;;;;;1.70;0.60;;;7.80;99.90;;;;;;5047279;28;20131;-78
2022/11/26 03:09:50;;;;;;;0.85;0.52;;;7.80;99.90;;;;;;5030744;28;20048;-79
2022/11/26 03:12:16;;;;;;;1.00;0.70;;;7.90;99.90;;;;;;5062826;28;20560;-79
2022/11/26 03:14:44;;;;;;;2.38;0.82;;;8.00;99.90;;;;;;5046588;28;20060;-79
2022/11/26 03:17:10;;;;;;;1.83;1.08;;;8.10;99.90;;;;;;5046522;28;20041;-80
2022/11/26 03:19:37;;;;;;;0.65;0.65;;;8.20;99.90;;;;;;5046428;28;20107;-79
2022/11/26 03:22:04;;;;;;;0.73;0.45;;;8.30;99.90;;;;;;5030643;28;20052;-79
2022/11/26 03:24:31;;;;;;;2.13;0.90;;;8.30;99.90;;;;;;5062708;28;20114;-79
2022/11/26 03:26:58;;;;;;;1.63;0.75;;;8.40;99.90;;;;;;5062879;28;20048;-79
2022/11/26 03:29:25;;;;;;;0.65;0.45;;;8.40;99.90;;;;;;5030278;28;20078;-79
2022/11/26 03:31:51;;;;;;;0.30;0.30;;;8.40;99.90;;;;;;5046449;28;20052;-79
2022/11/26 03:34:19;;;;;;;0.70;0.40;;;8.50;99.90;;;;;;5064709;28;20249;-79
2022/11/26 03:36:45;;;;;;;0.85;0.45;;;8.50;99.90;;;;;;5062481;28;20052;-80
2022/11/26 03:39:12;;;;;;;0.80;0.55;;;8.50;99.90;;;;;;5045893;28;20076;-79
2022/11/26 03:41:42;;;;;;;2.10;0.60;;;8.50;99.90;;;;;;5062712;28;20044;-79
2022/11/26 03:44:10;;;;;;;1.23;0.77;;;8.40;99.90;;;;;;5045977;28;20487;-79
2022/11/26 03:46:37;;;;;;;0.73;0.40;;;8.40;99.90;;;;;;5046093;28;20097;-80
2022/11/26 03:49:03;;;;;;;1.15;0.50;;;8.40;99.90;;;;;;5029630;28;20056;-80
2022/11/26 03:51:30;;;;;;;0.77;0.50;;;8.40;99.90;;;;;;5061992;28;20048;-80
2022/11/26 03:53:57;;;;;;;0.88;0.50;;;8.40;99.90;;;;;;5062320;28;20041;-80
2022/11/26 03:56:23;;;;;;;0.40;0.40;;;8.40;99.90;;;;;;5046003;28;20067;-80
2022/11/26 03:58:50;;;;;;;1.10;0.60;;;8.40;99.90;;;;;;5062598;28;20057;-79
2022/11/26 04:01:17;;;;;;;1.08;0.80;;;8.40;99.90;;;;;;5045860;28;20056;-80
2022/11/26 04:03:44;;;;;;;1.23;0.50;;;8.40;99.90;;;;;;5062061;28;20554;-79
2022/11/26 04:06:11;;;;;;;0.82;0.63;;;8.50;99.90;;;;;;5062108;28;20072;-79
2022/11/26 04:08:37;;;;;;;0.70;0.50;;;8.50;99.90;;;;;;5062543;28;20165;-79
2022/11/26 04:11:04;;;;;;;0.70;0.50;;;8.50;99.90;;;;;;5045825;28;20044;-79
2022/11/26 04:13:31;;;;;;;1.10;0.55;;;8.50;99.90;;;;;;5061449;28;20045;-80
2022/11/26 04:15:58;;;;;;;0.85;0.50;;;8.50;99.90;;;;;;5062550;28;20045;-81
2022/11/26 04:18:24;;;;;;;0.63;0.63;;;8.50;99.90;;;;;;5046235;28;20052;-79
2022/11/26 04:20:51;;;;;;;1.75;0.57;;;8.50;99.90;;;;;;5029253;28;20368;-80
2022/11/26 04:23:19;;;;;;;0.68;0.40;;;8.50;99.90;;;;;;5045507;28;20049;-80
2022/11/26 04:25:46;;;;;;;0.38;0.38;;;8.50;99.90;;;;;;5045466;28;20115;-80
2022/11/26 04:28:13;;;;;;;1.15;0.40;;;8.50;99.90;;;;;;5028256;28;20056;-80
2022/11/26 04:30:41;;;;;;;2.25;0.50;;;8.50;99.90;;;;;;5029623;28;20044;-80
2022/11/26 04:33:08;;;;;;;1.50;0.60;;;8.50;99.90;;;;;;5062235;28;20056;-80
2022/11/26 04:35:36;;;;;;;1.10;0.50;;;8.50;99.90;;;;;;5045604;28;20052;-80
2022/11/26 04:38:02;;;;;;;2.30;1.08;;;8.50;99.90;;;;;;5045427;28;20048;-79
2022/11/26 04:40:29;;;;;;;1.23;0.60;;;8.50;99.90;;;;;;5029128;28;20048;-79
2022/11/26 04:42:56;;;;;;;0.43;0.43;;;8.50;99.90;;;;;;5027031;28;20491;-80
2022/11/26 04:45:23;;;;;;;0.88;0.40;;;8.50;99.90;;;;;;5027929;28;20068;-80
2022/11/26 04:47:50;;;;;;;1.23;0.60;;;8.50;99.90;;;;;;5044925;28;20124;-78
2022/11/26 04:50:17;;;;;;;0.52;0.40;;;8.50;99.90;;;;;;5059230;28;20067;-80
2022/11/26 04:52:47;;;;;;;1.25;0.60;;;8.50;99.90;;;;;;5060462;28;20494;-80
2022/11/26 04:55:14;;;;;;;0.73;0.50;;;8.50;99.90;;;;;;5044541;28;20060;-80
2022/11/26 04:57:41;;;;;;;0.63;0.52;;;8.50;99.90;;;;;;5043951;28;20048;-79
2022/11/26 05:00:09;;;;;;;1.42;0.70;;;8.50;99.90;;;;;;5062482;28;20059;-80
2022/11/26 05:02:35;;;;;;;0.85;0.50;;;8.50;99.90;;;;;;5044863;28;20492;-80
2022/11/26 05:05:02;;;;;;;0.55;0.47;;;8.50;99.90;;;;;;5045081;28;20132;-80
2022/11/26 05:07:29;;;;;;;0.70;0.47;;;8.50;99.90;;;;;;5045023;28;20578;-80
2022/11/26 05:09:56;;;;;;;0.40;0.40;;;8.50;99.90;;;;;;5062855;28;20061;-80
2022/11/26 05:12:22;;;;;;;0.60;0.60;;;8.50;99.90;;;;;;5028057;28;20053;-80
2022/11/26 05:14:49;;;;;;;1.08;0.73;;;8.50;99.90;;;;;;5041479;28;20434;-80
2022/11/26 05:17:16;;;;;;;0.50;0.43;;;8.50;99.90;;;;;;5041215;28;20087;-80
2022/11/26 05:19:43;;;;;;;2.42;0.63;;;8.50;99.90;;;;;;5024896;28;20091;-79
2022/11/26 05:22:09;;;;;;;0.63;0.57;;;8.60;99.90;;;;;;5041592;28;20049;-80
2022/11/26 05:24:36;;;;;;;0.82;0.45;;;8.60;99.90;;;;;;5034698;28;20052;-80
2022/11/26 05:27:04;;;;;;;0.70;0.68;;;8.60;99.90;;;;;;5041928;28;20471;-80
2022/11/26 05:29:31;;;;;;;2.40;0.90;;;8.60;99.90;;;;;;5046613;28;20052;-79
2022/11/26 05:31:58;;;;;;;0.77;0.40;;;8.60;99.90;;;;;;5061187;28;20048;-80
2022/11/26 05:34:25;;;;;;;0.68;0.43;;;8.60;99.90;;;;;;5064829;28;20048;-80
2022/11/26 05:36:51;;;;;;;0.55;0.40;;;8.60;99.90;;;;;;5064766;28;20059;-80
2022/11/26 05:39:18;;;;;;;0.70;0.50;;;8.60;99.90;;;;;;5064752;28;20049;-80
2022/11/26 05:41:45;;;;;;;0.77;0.35;;;8.60;99.90;;;;;;5065323;28;20059;-80
2022/11/26 05:44:12;;;;;;;0.95;0.55;;;8.60;99.90;;;;;;5063851;28;20362;-80
2022/11/26 05:46:40;;;;;;;2.00;0.63;;;8.70;99.90;;;;;;5064285;28;20049;-79
2022/11/26 05:49:07;;;;;;;0.68;0.43;;;8.70;99.90;;;;;;5031989;28;20052;-80
2022/11/26 05:51:33;;;;;;;1.10;0.50;;;8.60;99.90;;;;;;5044545;28;20099;-80
2022/11/26 05:54:00;;;;;;;0.60;0.50;;;8.60;99.90;;;;;;5032376;28;20055;-80
2022/11/26 05:56:27;;;;;;;1.40;0.80;;;8.60;99.90;;;;;;5063867;28;20052;-79
2022/11/26 05:58:54;;;;;;;0.82;0.50;;;8.60;99.90;;;;;;5065563;28;20489;-80
2022/11/26 06:01:20;;;;;;;1.73;0.50;;;8.60;99.90;;;;;;5046741;28;20053;-80
2022/11/26 06:03:47;;;;;;;0.40;0.40;;;8.50;99.90;;;;;;5061693;28;20060;-80
2022/11/26 06:06:14;;;;;;;0.55;0.50;;;8.50;99.90;;;;;;5044385;28;20045;-80
2022/11/26 06:08:41;;;;;;;0.57;0.52;;;8.50;99.90;;;;;;5062283;28;20067;-79
2022/11/26 06:11:11;;;;;;;0.40;0.40;;;8.50;99.90;;;;;;5062063;28;20459;-80
2022/11/26 06:13:37;;;;;;;0.70;0.50;;;8.40;99.90;;;;;;5061381;28;20062;-81
2022/11/26 06:16:04;;;;;;;0.47;0.47;;;8.40;99.90;;;;;;5045350;28;20121;-81
2022/11/26 06:18:31;;;;;;;0.93;0.50;;;8.30;99.90;;;;;;5026303;28;20059;-80
2022/11/26 06:21:02;;;;;;;0.73;0.50;;;8.30;99.90;;;;;;5027619;28;20527;-80
2022/11/26 06:23:28;;;;;;;1.35;0.50;;;8.30;99.90;;;;;;5061589;28;20072;-80
2022/11/26 06:25:55;;;;;;;0.55;0.40;;;8.20;99.90;;;;;;5045343;28;20048;-81
2022/11/26 06:28:22;;;;;;;0.57;0.50;;;8.20;99.90;;;;;;5041022;28;20069;-80
2022/11/26 06:30:49;;;;;;;0.63;0.45;;;8.20;99.90;;;;;;5042718;28;20060;-80
2022/11/26 06:33:16;;;;;;;0.47;0.47;;;8.10;99.90;;;;;;5061714;28;20048;-80
2022/11/26 06:35:42;;;;;;;0.38;0.30;;;8.10;99.90;;;;;;5061307;28;20052;-82
2022/11/26 06:38:10;;;;;;;0.57;0.40;;;8.10;99.90;;;;;;5032544;28;20810;-82
2022/11/26 06:40:37;;;;;;;0.40;0.40;;;8.00;99.90;;;;;;5043998;28;20403;-83
2022/11/26 06:43:04;;;;;;;1.00;0.60;;;8.00;99.90;;;;;;5059985;28;20124;-81
2022/11/26 06:45:31;;;;;;;1.58;0.50;;;8.00;99.90;;;;;;5044229;28;20037;-82
2022/11/26 06:47:58;;;;;;;0.63;0.40;;;7.90;99.90;;;;;;5041174;28;20048;-82
2022/11/26 06:50:24;;;;;;;1.25;0.70;;;7.90;99.90;;;;;;5043930;28;20083;-83
2022/11/26 06:52:52;;;;;;;0.82;0.65;;;7.90;99.90;;;;;;5043481;28;20048;-83
2022/11/26 06:55:18;;;;;;;0.82;0.80;;;7.80;99.90;;;;;;5060768;28;20048;-83
2022/11/26 06:57:49;;;;;;;0.60;0.40;;;7.80;99.90;;;;;;5041782;28;20156;-82
2022/11/26 07:00:16;;;;;;;0.93;0.52;;;7.80;99.90;;;;;;5059133;28;20602;-83
2022/11/26 07:02:43;;;;;;;1.60;0.50;;;7.80;99.90;;;;;;5060361;28;20086;-82
2022/11/26 07:05:10;;;;;;;0.65;0.50;;;7.80;99.90;;;;;;5027126;28;20052;-83
2022/11/26 07:07:37;;;;;;;0.52;0.38;;;7.70;99.90;;;;;;5062046;28;20045;-84
2022/11/26 07:10:05;;;;;;;1.58;0.80;;;7.70;99.90;;;;;;5062481;28;20127;-81
2022/11/26 07:12:32;;;;;;;1.25;0.50;;;7.70;99.90;;;;;;5060154;28;20198;-83
2022/11/26 07:14:59;;;;;;;0.93;0.50;;;7.70;99.90;;;;;;5040441;28;20044;-82
2022/11/26 07:17:27;;;;;;;1.02;0.60;;;7.70;99.90;;;;;;5056600;28;20053;-81
2022/11/26 07:19:54;;;;;;;0.90;0.70;;;7.70;99.90;;;;;;5058779;28;20048;-82
2022/11/26 07:22:21;;;;;;;1.17;0.70;;;7.70;99.90;;;;;;5036096;28;20072;-82
2022/11/26 07:24:48;;;;;;;1.23;0.80;;;7.70;99.90;;;;;;5027034;28;20135;-82
2022/11/26 07:27:14;;;;;;;0.88;0.65;;;7.60;99.90;;;;;;5038845;28;20048;-83
2022/11/26 07:29:41;;;;;;;1.48;0.50;;;7.60;99.90;;;;;;5034028;28;20372;-82
2022/11/26 07:32:08;;;;;;;0.98;0.70;;;7.60;99.90;;;;;;5057219;28;20036;-81
2022/11/26 07:34:35;;;;;;;0.77;0.60;;;7.60;99.90;;;;;;5048121;28;20490;-83
2022/11/26 07:37:02;;;;;;;1.48;1.08;;;7.60;99.90;;;;;;5061094;28;20055;-81
2022/11/26 07:39:29;;;;;;;0.77;0.50;;;7.60;99.90;;;;;;5052549;28;20477;-82
2022/11/26 07:41:55;;;;;;;0.63;0.60;;;7.60;99.90;;;;;;5039540;28;20047;-82
2022/11/26 07:44:22;;;;;;;0.70;0.50;;;7.60;99.90;;;;;;5058261;28;20053;-82
2022/11/26 07:46:49;;;;;;;0.60;0.50;;;7.60;99.90;;;;;;5033984;28;20056;-82
2022/11/26 07:49:16;;;;;;;2.08;0.60;;;7.50;99.90;;;;;;5054073;28;20040;-82
2022/11/26 07:51:43;;;;;;;0.70;0.50;;;7.50;99.90;;;;;;5051887;28;20181;-80
2022/11/26 07:54:10;;;;;;;0.65;0.50;;;7.50;99.90;;;;;;5039877;28;20149;-81
2022/11/26 07:56:37;;;;;;;0.47;0.40;;;7.50;99.90;;;;;;5052120;28;20068;-80
2022/11/26 07:59:04;;;;;;;1.25;1.00;;;7.50;99.90;;;;;;5054841;28;20051;-81
2022/11/26 08:01:31;;;;;;;2.17;0.80;;;7.50;99.90;;;;;;5023073;28;20045;-81
2022/11/26 08:03:58;;;;;;;0.93;0.60;;;7.60;99.90;;;;;;5053102;28;20069;-81
2022/11/26 08:06:27;;;;;;;1.55;0.60;;;7.60;99.90;;;;;;5055358;28;20060;-80
2022/11/26 08:08:54;;;;;;;0.95;0.63;;;7.60;99.90;;;;;;5055556;28;20052;-81
2022/11/26 08:11:25;;;;;;;1.40;0.73;;;7.60;99.90;;;;;;5041605;28;20044;-81
2022/11/26 08:13:53;;;;;;;2.70;0.75;;;7.60;99.90;;;;;;5055610;28;20128;-81
2022/11/26 08:16:20;;;;;;;1.17;0.70;;;7.70;99.90;;;;;;5054332;28;20044;-81
2022/11/26 08:18:47;;;;;;;0.40;0.40;;;7.70;99.90;;;;;;5037930;28;20486;-81
2022/11/26 08:21:14;;;;;;;1.55;0.55;;;7.70;99.90;;;;;;5036427;28;20063;-81
2022/11/26 08:23:40;;;;;;;0.60;0.60;;;7.80;99.90;;;;;;5037919;28;20056;-81
2022/11/26 08:26:08;;;;;;;1.23;0.50;;;7.90;99.90;;;;;;5056915;28;20055;-82
2022/11/26 08:28:55;;;;;;;1.40;0.57;;;7.90;99.90;;;;;;5053553;28;20141;-82
2022/11/26 08:31:23;;;;;;;0.85;0.50;;;8.10;99.90;;;;;;5050227;28;20498;-81
2022/11/26 08:33:50;;;;;;;1.15;0.45;;;8.10;99.90;;;;;;5046622;28;20049;-81
2022/11/26 08:36:17;;;;;;;1.60;0.70;;;8.30;99.90;;;;;;5037048;28;20538;-81
2022/11/26 08:38:44;;;;;;;0.50;0.45;;;8.40;99.90;;;;;;5019494;28;20096;-81
2022/11/26 08:41:13;;;;;;;0.75;0.68;;;8.60;99.90;;;;;;5042264;28;20044;-81
2022/11/26 08:43:41;;;;;;;1.05;0.60;;;8.70;99.90;;;;;;5053101;28;20068;-82
2022/11/26 08:46:28;;;;;;;1.25;0.50;;;8.80;99.90;;;;;;5040942;28;20515;-83
2022/11/26 08:48:55;;;;;;;1.33;0.75;;;9.00;99.90;;;;;;5055314;28;20054;-81
2022/11/26 08:51:22;;;;;;;1.70;0.80;;;9.00;99.90;;;;;;5054718;28;20052;-82
2022/11/26 08:53:49;;;;;;;1.60;0.70;;;9.10;99.90;;;;;;5039251;28;20127;-81
2022/11/26 08:56:16;;;;;;;1.77;0.98;;;9.10;99.90;;;;;;5055844;28;20503;-83
2022/11/26 08:58:44;;;;;;;0.80;0.63;;;9.20;99.90;;;;;;5022521;28;20049;-82
2022/11/26 09:01:21;;;;;;;1.50;0.82;;;9.20;99.90;;;;;;5041349;28;20048;-82
2022/11/26 09:03:53;;;;;;;0.60;0.60;;;9.20;99.90;;;;;;5045288;28;20097;-82
2022/11/26 09:06:20;;;;;;;1.27;0.60;;;9.20;99.90;;;;;;5057538;28;20072;-82
2022/11/26 09:11:34;;;;;;;1.30;0.70;;;9.30;99.90;;;;;;5043271;28;20484;-83
2022/11/26 09:14:01;;;;;;;1.45;0.80;;;9.40;99.90;;;;;;5041306;28;20464;-81
2022/11/26 09:16:28;;;;;;;1.50;0.77;;;9.50;99.90;;;;;;5057858;28;20072;-82
2022/11/26 09:18:55;;;;;;;1.55;0.68;;;9.60;99.90;;;;;;5063950;28;20052;-84
2022/11/26 09:21:22;;;;;;;0.63;0.57;;;9.70;99.90;;;;;;5042685;28;20116;-82
2022/11/26 09:23:49;;;;;;;0.70;0.70;;;9.70;99.90;;;;;;5059491;28;20055;-84
2022/11/26 09:26:17;;;;;;;0.60;0.60;;;9.80;99.90;;;;;;5062407;28;20071;-84
2022/11/26 09:28:43;;;;;;;1.15;0.52;;;9.80;99.90;;;;;;5046455;28;20041;-82
2022/11/26 09:31:10;;;;;;;2.08;0.60;;;9.90;99.90;;;;;;5042390;28;20052;-82
2022/11/26 09:33:38;;;;;;;2.13;0.60;;;9.90;99.90;;;;;;5026899;28;20483;-82
2022/11/26 09:36:09;;;;;;;1.42;0.70;;;9.90;99.90;;;;;;5062146;28;20068;-82
2022/11/26 09:38:36;;;;;;;2.88;0.70;;;10.00;99.90;;;;;;5033553;28;20059;-82
2022/11/26 09:41:17;;;;;;;1.08;0.70;;;10.10;99.90;;;;;;5059025;28;20040;-82
2022/11/26 09:43:56;;;;;;;1.63;0.90;;;10.20;99.90;;;;;;5056894;28;20044;-83
2022/11/26 09:47:01;;;;;;;2.45;1.02;;;10.30;99.90;;;;;;5037596;28;20041;-81
2022/11/26 09:50:02;;;;;;;1.20;0.68;;;10.30;99.90;;;;;;5017291;28;20080;-83
2022/11/26 09:52:52;;;;;;;1.35;0.80;;;10.40;99.90;;;;;;5052804;28;20045;-82
2022/11/26 09:55:23;;;;;;;3.50;1.30;;;10.50;99.90;;;;;;5035007;28;20080;-82
2022/11/26 09:58:10;;;;;;;5.07;1.77;;;10.60;99.90;;;;;;5037114;28;20052;-83
2022/11/26 10:00:42;;;;;;;2.83;1.48;;;10.60;99.90;;;;;;5043266;28;20050;-83
2022/11/26 10:03:20;;;;;;;2.90;1.33;;;10.70;99.90;;;;;;5059581;28;20105;-82
2022/11/26 10:05:51;;;;;;;1.67;1.38;;;10.80;99.90;;;;;;5051998;28;20152;-82
2022/11/26 10:08:36;;;;;;;3.13;1.10;;;10.80;99.90;;;;;;5053151;28;20044;-82
2022/11/26 10:11:11;;;;;;;1.90;1.23;;;11.00;99.90;;;;;;5063465;28;20059;-82
2022/11/26 10:14:04;;;;;;;1.98;1.33;;;11.00;99.90;;;;;;5037252;28;20459;-81
2022/11/26 10:17:08;;;;;;;1.73;1.20;;;11.10;99.90;;;;;;5039626;28;20062;-83
2022/11/26 10:19:54;;;;;;;;;;;11.20;99.90;;;;;;5061264;28;20562;-81
2022/11/26 10:22:51;;;;;;;1.52;1.08;;;11.30;99.90;;;;;;5051559;28;20004;-82
2022/11/26 10:25:25;;;;;;;2.08;0.98;;;11.30;99.90;;;;;;5061213;28;20052;-81
2022/11/26 10:27:53;;;;;;;1.75;1.25;;;11.40;99.90;;;;;;5043254;28;20080;-83
2022/11/26 10:30:27;;;;;;;2.03;1.15;;;11.50;99.90;;;;;;5026862;28;20053;-82
2022/11/26 10:32:54;;;;;;;1.58;1.13;;;11.50;99.90;;;;;;5068287;28;20124;-82
2022/11/26 10:35:26;;;;;;;2.17;1.05;;;11.60;99.90;;;;;;5026783;28;20049;-81
2022/11/26 10:37:54;;;;;;;2.30;1.23;;;11.70;99.90;;;;;;5043704;28;20051;-82
2022/11/26 10:40:25;;;;;;;3.72;1.30;;;11.70;99.90;;;;;;5061942;28;20468;-83
2022/11/26 10:43:09;;;;;;;1.70;0.88;;;11.80;99.90;;;;;;5040640;28;20135;-83
2022/11/26 10:45:41;;;;;;;2.17;1.10;;;11.80;99.90;;;;;;5060290;28;20079;-82
2022/11/26 10:48:25;;;;;;;1.77;0.97;;;11.90;99.90;;;;;;5045300;28;20048;-82
2022/11/26 10:51:05;;;;;;;2.28;1.15;;;11.90;99.90;;;;;;5060135;28;20090;-82
2022/11/26 10:53:56;;;;;;;1.63;0.80;;;12.00;99.90;;;;;;5060805;28;20244;-82
2022/11/26 10:56:44;;;;;;;1.50;0.90;;;12.00;99.90;;;;;;5045398;28;20500;-82
2022/11/26 10:59:43;;;;;;;1.58;1.00;;;12.00;99.90;;;;;;5042259;28;20537;-82
2022/11/26 11:02:16;;;;;;;2.05;1.00;;;12.10;99.90;;;;;;5060269;28;20086;-82
2022/11/26 11:04:43;;;;;;;1.48;0.93;;;12.10;99.90;;;;;;5059976;28;20063;-82
2022/11/26 11:07:36;;;;;;;1.88;1.02;;;12.20;99.90;;;;;;5060760;28;20045;-82
2022/11/26 11:10:10;;;;;;;2.83;1.30;;;12.20;99.90;;;;;;5042950;28;20102;-83
2022/11/26 11:12:40;;;;;;;1.85;1.25;;;12.30;99.90;;;;;;5058324;28;20050;-82
2022/11/26 11:15:21;;;;;;;4.45;1.65;;;12.30;99.90;;;;;;5059925;28;20123;-82
2022/11/26 11:17:58;;;;;;;2.85;1.50;;;12.30;99.90;;;;;;5053060;28;20041;-82
2022/11/26 11:20:36;;;;;;;2.40;1.40;;;12.40;99.90;;;;;;5058797;28;20078;-82
2022/11/26 11:23:06;;;;;;;1.42;0.90;;;12.30;99.90;;;;;;5025134;28;20048;-81
2022/11/26 11:25:34;;;;;;;2.50;1.20;;;12.40;99.90;;;;;;5043333;28;20052;-82
2022/11/26 11:28:20;;;;;;;3.50;1.20;;;12.40;99.90;;;;;;5042357;28;20057;-82
2022/11/26 11:31:01;;;;;;;1.98;1.25;;;12.40;99.90;;;;;;5045520;28;20040;-82
2022/11/26 11:33:28;;;;;;;1.70;0.90;;;12.50;99.90;;;;;;5043811;28;20118;-82
2022/11/26 11:36:05;;;;;;;3.80;1.40;;;12.50;99.90;;;;;;5042464;28;20048;-82
2022/11/26 11:38:45;;;;;;;1.98;0.93;;;12.50;99.90;;;;;;5058903;28;20852;-82
2022/11/26 11:41:24;;;;;;;2.05;0.95;;;12.60;99.90;;;;;;5026968;28;20511;-82
2022/11/26 11:44:05;;;;;;;2.05;1.13;;;12.60;99.90;;;;;;5042849;28;20096;-82
2022/11/26 11:47:06;;;;;;;1.88;0.93;;;12.60;99.90;;;;;;5058689;28;20448;-82
2022/11/26 11:49:36;;;;;;;0.60;0.60;;;12.60;99.90;;;;;;5059957;28;20048;-82
2022/11/26 11:52:16;;;;;;;1.65;0.80;;;12.70;99.90;;;;;;5061126;28;20068;-84
2022/11/26 11:54:55;;;;;;;2.92;1.20;;;12.70;99.90;;;;;;5050415;28;20075;-84
2022/11/26 11:57:42;;;;;;;4.68;1.00;;;12.70;99.90;;;;;;5036216;28;20053;-83
2022/11/26 12:00:13;;;;;;;2.40;1.20;;;12.80;99.90;;;;;;5060036;28;20048;-82
2022/11/26 12:02:54;;;;;;;3.53;1.00;;;12.80;99.90;;;;;;5034978;28;20063;-82
2022/11/26 12:05:36;;;;;;;2.38;0.95;;;12.80;99.90;;;;;;5060467;28;20040;-82
2022/11/26 12:08:21;;;;;;;2.85;1.05;;;12.90;99.90;;;;;;5058755;28;20467;-83
2022/11/26 12:10:49;;;;;;;1.75;0.90;;;12.90;99.90;;;;;;5060007;28;20450;-83
2022/11/26 12:13:16;;;;;;;2.35;1.17;;;13.00;99.90;;;;;;5060415;28;20353;-80
2022/11/26 12:15:50;;;;;;;3.65;1.38;;;13.00;99.90;;;;;;5024377;28;20484;-84
2022/11/26 12:18:20;;;;;;;3.05;1.17;;;13.00;99.90;;;;;;5041379;28;20348;-83
2022/11/26 12:20:58;;;;;;;2.13;1.10;;;12.90;99.90;;;;;;5059736;28;20044;-82
2022/11/26 12:23:42;;;;;;;3.30;1.40;;;12.90;99.90;;;;;;5041899;28;20060;-82
2022/11/26 12:26:21;;;;;;;3.10;1.02;;;12.90;99.90;;;;;;5043048;28;20045;-82
2022/11/26 12:28:57;;;;;;;1.92;0.93;;;12.90;99.90;;;;;;5049448;28;20049;-82
2022/11/26 12:31:33;;;;;;;1.83;0.88;;;13.00;99.90;;;;;;5048034;28;20166;-82
2022/11/26 12:34:06;;;;;;;2.22;1.17;;;13.10;99.90;;;;;;5057029;28;20133;-83
2022/11/26 12:36:54;;;;;;;1.73;0.90;;;13.10;99.90;;;;;;5060220;28;20458;-83
2022/11/26 12:39:27;;;;;;;1.30;0.70;;;13.20;99.90;;;;;;5063802;28;20094;-82
2022/11/26 12:42:01;;;;;;;2.30;1.15;;;13.20;99.90;;;;;;5063831;28;20419;-82
2022/11/26 12:44:31;;;;;;;2.83;1.13;;;13.20;99.90;;;;;;5045135;28;20428;-81
2022/11/26 12:47:20;;;;;;;2.25;1.30;;;13.10;99.90;;;;;;5025172;28;20057;-81
2022/11/26 12:50:25;;;;;;;1.02;0.70;;;13.10;99.90;;;;;;5048058;28;20132;-81
2022/11/26 12:53:03;;;;;;;3.08;1.10;;;13.10;99.90;;;;;;5062805;28;20048;-80
2022/11/26 12:55:47;;;;;;;2.45;1.20;;;13.10;99.90;;;;;;5062301;28;20143;-80
2022/11/26 12:58:37;;;;;;;1.90;0.90;;;13.10;99.90;;;;;;5046759;28;20101;-80
2022/11/26 13:01:04;;;;;;;1.35;0.95;;;13.40;99.90;;;;;;5060279;28;20419;-80
2022/11/26 13:03:32;;;;;;;2.78;1.30;;;13.50;99.90;;;;;;5046474;28;20052;-80
2022/11/26 13:06:03;;;;;;;1.58;0.90;;;13.50;99.90;;;;;;5046841;28;20052;-82
2022/11/26 13:09:07;;;;;;;2.22;1.13;;;13.50;99.90;;;;;;5063269;28;20053;-81
2022/11/26 13:11:47;;;;;;;1.65;1.25;;;13.50;99.90;;;;;;5063275;28;20128;-81
2022/11/26 13:14:38;;;;;;;1.02;0.80;;;13.50;99.90;;;;;;5062245;28;20052;-81
2022/11/26 13:17:17;;;;;;;2.20;1.13;;;13.50;99.90;;;;;;5030856;28;20387;-81
2022/11/26 13:19:48;;;;;;;1.40;0.90;;;13.40;99.90;;;;;;5045835;28;20045;-81